Terminal Aerodrome Forecast
Issued by NWS

Home | Current Version | Previous Version | Text Only | Print | Product List | Glossary On
Versions: 1 2 3 4 5 6 7 8 9 10 11 12 13 14
000
FTUS45 KCYS 240500
TAFAIA
TAF
KAIA 240520Z 2406/2506 01009KT P6SM SCT090
     FM241500 29014G24KT P6SM SKC
     FM241900 29014G24KT P6SM SCT250
     FM250200 30007KT P6SM BKN150=

USA.gov is the U.S. government's official web portal to all federal, state and local government web resources and services.